Cercs-Sant Jordi





Hora UTC 01:50
Temperatura 17.7 ºC
Humedad 35.9 %
Presión 1010.1 hPa
Pluja 0.0 mm
Velocidad viento 0.0 km/h
Dirección viento NNE
Radiación solar 0.1 W/m²

Datos diarios 2022-05-23



Hora UTC (invierno +1h; verano +2h)
Temperatura (ºC) Humedad (%) Presión (hPa) Velocidad viento (km/h) Precipitación (mm) Radiación solar (W/m²)
Hora UTC Aire Humedad Presión Vel. Dir. Vel. Max Dir. Intent. máx 5 min. Rad. Sol.
00:05 19.0 33.9 1011.3 0.0 NNE 0.0 NNE 0.0 0.2
00:10 18.8 34.4 1011.2 0.0 NNE 0.0 SW 0.0 0.1
00:15 18.8 33.7 1011.0 0.0 NNE 0.0 NE 0.0 0.1
00:20 18.4 34.9 1011.1 0.0 NNE 0.0 S 0.0 0.1
00:25 18.2 35.5 1011.0 0.0 NNE 0.0 SW 0.0 0.1
00:30 18.4 34.6 1011.0 0.0 NNE 0.0 NW 0.0 0.1
00:35 18.4 34.6 1011.0 0.0 NNE 0.0 NE 0.0 0.1
00:40 18.1 35.3 1010.9 0.0 NNE 0.0 WSW 0.0 0.1
00:45 18.2 34.7 1010.8 0.0 NNE 0.0 WSW 0.0 0.1
00:50 18.0 35.1 1010.8 0.0 NNE 0.0 ESE 0.0 0.1
00:55 17.7 35.5 1010.9 0.0 NNE 0.0 SW 0.0 0.1
01:00 18.0 34.8 1010.8 0.0 NNE 0.0 ESE 0.0 0.1
01:05 17.8 35.2 1010.7 0.0 NNE 0.0 W 0.0 0.1
01:10 17.7 36.0 1010.7 0.0 NNE 0.0 SW 0.0 0.1
01:15 17.8 35.2 1010.6 0.0 NNE 0.0 WNW 0.0 0.1
01:20 17.9 34.9 1010.5 0.0 NNE 0.0 NNW 0.0 0.1
01:25 17.7 35.7 1010.4 0.0 NNE 0.0 SW 0.0 0.1
01:30 17.6 35.4 1010.3 0.0 NNE 0.0 NNW 0.0 0.1
01:35 18.0 33.9 1010.2 0.0 NNE 0.0 NNW 0.0 0.1
01:40 17.7 35.1 1010.2 0.0 NNE 0.0 SW 0.0 0.1
01:45 17.7 35.6 1010.1 0.0 NNE 0.0 SSW 0.0 0.1
01:50 17.7 35.9 1010.1 0.0 NNE 0.0 W 0.0 0.1
Máxima 19.0 36.0 1011.3 0.0 NNE 0.0 W 0.0 0.2
Mínima 17.5 33.7 1010.1
Total 0.0